This is the latest recevied weather packets stored in our database for station/object SM6KNE. If no packets are shown the sender has not sent any weather packets the latest 10 day(s).
| Time | Temp. | Humidity | Pressure | Rain* | Wind** | Luminosity | Snow |
|---|---|---|---|---|---|---|---|
| 1777430717 | 0.56° C | 64% | 1030.2 hPa | 0 mm | - | - | - |
| 1777427123 | 0.56° C | 61% | 1030.2 hPa | 0 mm | - | - | - |
| 1777423523 | 1.11° C | 61% | 1030.2 hPa | 0 mm | - | - | - |
| 1777414523 | 3.33° C | 54% | 1030.2 hPa | 0 mm | - | - | - |
| 1777413324 | 3.33° C | 53% | 1030.2 hPa | 0 mm | - | - | - |
| 1777404323 | 8.33° C | 37% | 1029.2 hPa | 0 mm | - | - | - |
| 1777403723 | 8.89° C | 35% | 1029.2 hPa | 0 mm | - | - | - |
| 1777402523 | 10° C | 32% | 1029.2 hPa | 0 mm | - | - | - |
| 1777400723 | 12.22° C | 30% | 1029.2 hPa | 0 mm | - | - | - |
| 1777400123 | 13.33° C | 29% | 1029.2 hPa | 0 mm | - | - | - |
| 1777397723 | 15° C | 28% | 1029.2 hPa | 0 mm | - | - | - |
| 1777396524 | 16.11° C | 27% | 1028.2 hPa | 0 mm | - | - | - |
| 1777394723 | 18.89° C | 24% | 1028.2 hPa | 0 mm | - | - | - |
| 1777392916 | 20.56° C | 24% | 1029.2 hPa | 0 mm | - | - | - |
| 1777391727 | 22.22° C | 22% | 1029 hPa | 0 mm | - | - | - |
| 1777388719 | 23.33° C | 20% | 1029.2 hPa | 0 mm | - | - | - |
| 1777388123 | 22.78° C | 21% | 1029.2 hPa | 0 mm | - | - | - |
| 1777382123 | 21.67° C | 24% | 1029.2 hPa | 0 mm | - | - | - |
| 1777381523 | 21.67° C | 24% | 1029.2 hPa | 0 mm | - | - | - |
| 1777380316 | 21.11° C | 25% | 1029.2 hPa | 0 mm | - | - | - |
| 1777377944 | 20° C | 27% | 1030.2 hPa | 0 mm | - | - | - |
| 1777371936 | 15.56° C | 35% | 1031.2 hPa | 0 mm | - | - | - |
| 1777370724 | 14.44° C | 37% | 1031.2 hPa | 0 mm | - | - | - |
| 1777369524 | 13.33° C | 39% | 1031.2 hPa | 0 mm | - | - | - |
| 1777364723 | 9.44° C | 49% | 1031.2 hPa | 0 mm | - | - | - |
* Rain latest 24 hours (hover to see other rain measurements)
** Current wind speed in m/s (hover to see current wind gust speed)